Etusivu
METAR-TAF:

METAR-TAF

Lentoasemat :

Sapporo, Japani

Leveyspiiri: 43-07N, Pituuspiiri: 141-23E, korkeus merenpinnasta: 8 m

Tämänhetkinen sää

Tämä raportti tehtiin 1 tunti ja 15 minuuttia sitten, kello 11.00 UTC
Tuuli 17 kn etelästä/kaakosta
Lämpötila 9°C
Kosteus 66%
Ilmanpaine 1011 hPa
Näkyvyys 10 km tai enemmän
Muutamia pilviä 2000 ft:n korkeudessa
Hajanaisia pilviä 5000 ft:n korkeudessa
Hajonneita pilviä 10000 ft:n korkeudessa

METAR: RJCO 131100Z 15017KT 9999 FEW020 SCT050 BKN100 09/03 Q1011

Aika: 21:15 (12:15 UTC)


TAF: puuttuu

Säähavainnot ja -ennusteet yli 4000 lentoasemalta (METAR- ja TAF-raportit).

Käytössä olevat sääasemat on merkitty karttaan keltaisilla ja punaisilla pisteillä.

Aseta hiiri pisteen päälle nähdäksesi sääaseman nimen.

Klikkaa sitten nähdäksesi säähavainnot ja -ennusteet.

Kartan vaihtaminen: klikkaa mustalla rastilla varustettuja vihreitä pisteitä, niin voit zoomata sisään; viivalla varustettua vihreää pistettä, niin voit zoomata ulos tai vihreitä nuolia, niin pääset viereisille kartoille.


METAR-TAF: